Time;durP1;ratioP1;P1;durP2;ratioP2;P2;SDS_P1;SDS_P2;PMS_P1;PMS_P2;Temp;Humidity;BMP_temperature;BMP_pressure;BME280_temperature;BME280_humidity;BME280_pressure;Samples;Min_cycle;Max_cycle;Signal;HPM_P1;HPM_P2
2021/04/27 00:01:15;;;;;;;24.35;11.10;;;;;;;0.89;59.69;98392.45;114696;1202;23125;-78
2021/04/27 00:03:42;;;;;;;22.03;10.17;;;;;;;0.88;59.09;98398.82;114783;1202;23125;-79
2021/04/27 00:06:09;;;;;;;27.20;11.60;;;;;;;0.89;58.85;98393.28;114747;1200;26187;-79
2021/04/27 00:08:38;;;;;;;23.57;11.03;;;;;;;0.90;58.69;98391.42;114710;1200;23125;-79
2021/04/27 00:11:06;;;;;;;40.57;12.50;;;;;;;0.88;58.92;98396.97;114982;1202;26207;-78
2021/04/27 00:13:33;;;;;;;21.37;10.57;;;;;;;0.83;58.60;98390.50;115095;1199;23118;-79
2021/04/27 00:16:00;;;;;;;24.20;10.35;;;;;;;0.78;58.63;98387.53;114739;1202;23147;-79
2021/04/27 00:18:27;;;;;;;22.20;9.80;;;;;;;0.73;58.81;98399.65;115075;1202;23284;-79
2021/04/27 00:20:54;;;;;;;22.55;9.65;;;;;;;0.70;58.99;98388.47;115035;1200;23125;-79
2021/04/27 00:23:22;;;;;;;24.90;10.07;;;;;;;0.68;59.16;98388.64;115073;1202;24944;-79
2021/04/27 00:25:49;;;;;;;20.05;8.30;;;;;;;0.62;59.91;98391.22;114784;1202;23140;-79
2021/04/27 00:28:16;;;;;;;25.23;10.10;;;;;;;0.54;60.18;98387.60;115008;1201;23247;-79
2021/04/27 00:30:43;;;;;;;21.25;10.90;;;;;;;0.53;60.66;98387.78;114774;1202;23118;-79
2021/04/27 00:33:10;;;;;;;26.03;10.80;;;;;;;0.51;60.69;98390.67;114853;1202;23198;-79
2021/04/27 00:35:37;;;;;;;24.27;10.00;;;;;;;0.52;60.84;98394.17;115138;1199;26060;-79
2021/04/27 00:38:05;;;;;;;31.30;12.10;;;;;;;0.51;61.41;98393.35;114815;1200;23121;-79
2021/04/27 00:40:32;;;;;;;31.30;14.15;;;;;;;0.49;61.10;98391.85;115095;1202;23287;-79
2021/04/27 00:42:59;;;;;;;25.03;12.03;;;;;;;0.48;61.06;98393.70;115156;1202;23186;-79
2021/04/27 00:45:29;;;;;;;30.47;13.10;;;;;;;0.47;60.73;98396.56;114724;1201;23163;-79
2021/04/27 00:47:57;;;;;;;25.35;13.13;;;;;;;0.43;60.21;98384.55;115069;1202;23156;-79
2021/04/27 00:50:30;;;;;;;29.03;12.67;;;;;;;0.44;60.79;98388.88;114807;1200;23119;-79
2021/04/27 00:52:58;;;;;;;27.60;13.00;;;;;;;0.37;60.29;98372.70;114955;1201;23102;-79
2021/04/27 00:55:26;;;;;;;24.90;11.05;;;;;;;0.33;59.79;98379.44;114725;1202;23125;-79
2021/04/27 00:57:54;;;;;;;21.80;10.75;;;;;;;0.27;59.71;98372.14;114892;1200;26182;-80
2021/04/27 01:00:25;;;;;;;21.30;10.13;;;;;;;0.21;60.28;98379.03;114735;1200;26077;-79
2021/04/27 01:02:52;;;;;;;24.03;9.93;;;;;;;0.13;60.19;98371.09;114830;1199;23125;-79
2021/04/27 01:05:23;;;;;;;25.27;10.53;;;;;;;0.08;60.82;98366.26;114785;1200;23915;-79
2021/04/27 01:08:09;;;;;;;22.53;10.17;;;;;;;0.06;59.81;98365.61;114963;1200;23148;-79
2021/04/27 01:10:49;;;;;;;23.50;10.13;;;;;;;0.02;59.95;98364.31;115065;1202;23105;-79
2021/04/27 01:13:26;;;;;;;20.70;9.90;;;;;;;0.02;60.34;98358.11;115164;1203;24577;-79
2021/04/27 01:15:54;;;;;;;22.53;9.70;;;;;;;0.01;60.47;98362.64;115234;1199;23184;-79
2021/04/27 01:18:23;;;;;;;26.57;10.93;;;;;;;0.02;60.17;98358.11;115129;1199;23111;-79
2021/04/27 01:20:51;;;;;;;23.03;10.63;;;;;;;0.03;59.92;98360.61;115000;1203;23141;-79
2021/04/27 01:23:40;;;;;;;25.95;11.25;;;;;;;0.02;60.24;98358.11;115035;1199;23112;-79
2021/04/27 01:26:27;;;;;;;27.60;11.60;;;;;;;0.02;60.36;98355.43;115065;1198;23125;-79
2021/04/27 01:28:54;;;;;;;21.80;11.10;;;;;;;0.05;60.88;98358.58;114958;1202;23195;-79
2021/04/27 01:31:23;;;;;;;21.75;10.30;;;;;;;0.06;60.64;98354.91;115009;1202;26955;-79
2021/04/27 01:33:51;;;;;;;21.85;10.15;;;;;;;0.04;60.31;98345.41;115374;1201;23116;-79
2021/04/27 01:36:18;;;;;;;19.17;9.30;;;;;;;-0.01;60.91;98345.93;115105;1200;23256;-79
2021/04/27 01:38:53;;;;;;;21.83;10.20;;;;;;;-0.03;61.27;98350.64;115337;1200;24665;-79
2021/04/27 01:41:20;;;;;;;22.25;9.80;;;;;;;-0.08;61.40;98345.81;114896;1199;26134;-79
2021/04/27 01:43:49;;;;;;;23.30;9.95;;;;;;;-0.12;61.65;98344.52;115183;1200;23152;-79
2021/04/27 01:46:16;;;;;;;20.23;10.03;;;;;;;-0.12;62.05;98346.37;115262;1200;23121;-79
2021/04/27 01:48:45;;;;;;;20.33;9.63;;;;;;;-0.16;61.57;98347.72;115151;1202;23114;-78
2021/04/27 01:51:13;;;;;;;29.00;10.45;;;;;;;-0.20;62.25;98345.39;115281;1200;23114;-79
2021/04/27 01:53:59;;;;;;;26.90;9.67;;;;;;;-0.24;62.19;98352.13;115158;1201;23109;-79
2021/04/27 01:56:28;;;;;;;22.63;9.20;;;;;;;-0.27;62.98;98340.94;115191;1200;23442;-79
2021/04/27 01:58:54;;;;;;;26.15;9.85;;;;;;;-0.29;62.30;98349.14;115015;1202;23113;-79
2021/04/27 02:01:27;;;;;;;19.50;8.50;;;;;;;-0.29;62.67;98343.79;114923;1199;24813;-79
2021/04/27 02:03:54;;;;;;;21.40;8.90;;;;;;;-0.31;62.92;98344.99;114945;1199;23125;-79
2021/04/27 02:06:24;;;;;;;15.55;6.30;;;;;;;-0.34;62.31;98343.48;114880;1200;26956;-79
2021/04/27 02:09:08;;;;;;;18.85;7.60;;;;;;;-0.37;62.83;98349.22;115005;1200;23152;-79
2021/04/27 02:11:41;;;;;;;15.57;7.63;;;;;;;-0.40;62.56;98338.86;114945;1202;23148;-79
2021/04/27 02:14:10;;;;;;;18.20;8.00;;;;;;;-0.41;62.93;98342.53;115191;1202;23112;-79
2021/04/27 02:16:41;;;;;;;;;;;;;;;-0.41;63.07;98343.39;114934;1204;23243;-79
2021/04/27 02:19:09;;;;;;;17.03;6.53;;;;;;;-0.39;63.19;98349.39;114939;1202;21679;-79
2021/04/27 02:21:39;;;;;;;13.58;5.70;;;;;;;-0.38;62.39;98342.19;115029;1202;23200;-79
2021/04/27 02:24:08;;;;;;;17.00;7.30;;;;;;;-0.34;62.68;98335.46;115253;1200;23294;-79
2021/04/27 02:26:39;;;;;;;12.10;5.40;;;;;;;-0.32;62.89;98336.14;114974;1200;23108;-79
2021/04/27 02:29:17;;;;;;;15.17;6.70;;;;;;;-0.33;62.74;98337.14;114918;1199;23108;-79
2021/04/27 02:31:45;;;;;;;14.13;6.23;;;;;;;-0.35;62.79;98340.98;114934;1200;23250;-79
2021/04/27 02:34:13;;;;;;;16.77;7.63;;;;;;;-0.34;63.09;98340.81;115253;1199;23147;-79
2021/04/27 02:36:41;;;;;;;12.05;5.40;;;;;;;-0.36;63.15;98339.34;115274;1202;24884;-79
2021/04/27 02:39:27;;;;;;;21.50;7.90;;;;;;;-0.39;62.81;98330.66;115475;1199;23204;-79
2021/04/27 02:41:54;;;;;;;11.80;5.25;;;;;;;-0.39;63.56;98329.81;115374;1202;23105;-79
2021/04/27 02:44:40;;;;;;;11.73;4.70;;;;;;;-0.38;63.56;98328.81;115383;1202;23112;-79
2021/04/27 02:47:08;;;;;;;10.95;6.05;;;;;;;-0.39;63.91;98330.66;115402;1202;23109;-79
2021/04/27 02:49:35;;;;;;;15.10;7.70;;;;;;;-0.37;64.03;98330.48;115142;1202;23247;-79
2021/04/27 02:52:07;;;;;;;20.05;6.70;;;;;;;-0.38;63.74;98328.81;115118;1202;22966;-79
2021/04/27 02:54:43;;;;;;;15.37;7.17;;;;;;;-0.37;63.85;98327.81;115221;1200;23314;-79
2021/04/27 02:57:11;;;;;;;15.37;6.83;;;;;;;-0.39;64.50;98330.66;115423;1203;23160;-79
2021/04/27 02:59:42;;;;;;;14.30;6.03;;;;;;;-0.39;64.46;98335.16;115139;1203;23105;-79
2021/04/27 03:02:09;;;;;;;12.30;4.85;;;;;;;-0.40;64.41;98328.98;115202;1202;23112;-79
2021/04/27 03:04:36;;;;;;;9.50;4.60;;;;;;;-0.42;64.72;98328.34;114843;1200;23108;-79
2021/04/27 03:07:16;;;;;;;12.10;5.23;;;;;;;-0.45;65.09;98334.03;115223;1202;23275;-79
2021/04/27 03:09:45;;;;;;;13.20;5.80;;;;;;;-0.47;65.01;98335.23;115032;1203;23101;-78
2021/04/27 03:12:12;;;;;;;9.30;4.15;;;;;;;-0.48;65.69;98330.89;114874;1200;24896;-78
2021/04/27 03:14:41;;;;;;;12.80;5.90;;;;;;;-0.50;65.50;98332.91;115024;1202;23191;-78
2021/04/27 03:17:08;;;;;;;9.70;5.47;;;;;;;-0.52;66.09;98330.41;115100;1200;23116;-78
2021/04/27 03:19:36;;;;;;;11.43;6.57;;;;;;;-0.53;65.74;98333.25;114786;1202;23145;-78
2021/04/27 03:22:09;;;;;;;13.37;6.13;;;;;;;-0.51;66.09;98329.41;115125;1200;23108;-78
2021/04/27 03:24:36;;;;;;;13.40;6.40;;;;;;;-0.50;66.06;98328.38;115127;1202;26129;-78
2021/04/27 03:27:03;;;;;;;14.20;6.70;;;;;;;-0.47;65.85;98336.06;114758;1200;23112;-78
2021/04/27 03:29:50;;;;;;;14.43;6.50;;;;;;;-0.44;65.75;98329.54;114894;1199;23160;-79
2021/04/27 03:32:18;;;;;;;13.20;6.17;;;;;;;-0.43;66.16;98334.69;115089;1202;23105;-78
2021/04/27 03:34:45;;;;;;;13.65;6.15;;;;;;;-0.43;65.54;98333.86;114783;1202;25977;-78
2021/04/27 03:37:13;;;;;;;15.15;6.15;;;;;;;-0.45;65.69;98336.71;114908;1199;23117;-78
2021/04/27 03:39:41;;;;;;;15.20;6.30;;;;;;;-0.44;65.98;98346.41;115060;1202;26491;-78
2021/04/27 03:42:09;;;;;;;16.40;5.57;;;;;;;-0.45;65.88;98336.71;114863;1202;23173;-78
2021/04/27 03:44:36;;;;;;;11.60;5.95;;;;;;;-0.44;65.92;98340.23;114871;1202;26041;-78
2021/04/27 03:47:04;;;;;;;13.35;7.15;;;;;;;-0.44;66.14;98340.23;115229;1200;23271;-78
2021/04/27 03:49:32;;;;;;;14.13;5.57;;;;;;;-0.44;65.93;98338.39;114954;1200;23133;-78
2021/04/27 03:51:59;;;;;;;14.03;6.80;;;;;;;-0.40;65.96;98336.19;114824;1200;23101;-78
2021/04/27 03:54:27;;;;;;;12.03;6.33;;;;;;;-0.39;66.04;98338.69;115065;1200;26038;-79
2021/04/27 03:56:54;;;;;;;10.80;4.85;;;;;;;-0.37;66.44;98343.02;114949;1200;23357;-79
2021/04/27 03:59:22;;;;;;;14.03;7.37;;;;;;;-0.37;66.49;98343.87;115168;1202;23096;-79
2021/04/27 04:01:50;;;;;;;17.50;6.50;;;;;;;-0.36;66.18;98344.69;115267;1201;23280;-79
2021/04/27 04:04:17;;;;;;;15.20;7.47;;;;;;;-0.35;66.29;98343.66;115035;1202;23109;-79
2021/04/27 04:07:04;;;;;;;14.23;5.63;;;;;;;-0.33;66.37;98349.70;115200;1199;23107;-79
2021/04/27 04:09:49;;;;;;;13.20;6.37;;;;;;;-0.30;66.71;98350.17;114947;1202;23117;-79
2021/04/27 04:12:26;;;;;;;14.57;7.70;;;;;;;-0.26;66.53;98351.47;115163;1202;24919;-79
2021/04/27 04:14:53;;;;;;;13.73;6.47;;;;;;;-0.24;66.53;98354.80;115116;1202;24742;-79
2021/04/27 04:17:36;;;;;;;11.33;5.37;;;;;;;-0.21;66.87;98358.97;115157;1199;23104;-79
2021/04/27 04:20:06;;;;;;;14.40;6.80;;;;;;;-0.21;66.29;98357.13;114965;1200;23140;-79
2021/04/27 04:22:34;;;;;;;12.37;6.30;;;;;;;-0.18;66.57;98363.13;114961;1202;23135;-79
2021/04/27 04:25:07;;;;;;;14.03;6.87;;;;;;;-0.16;66.51;98361.09;114945;1199;23108;-79
2021/04/27 04:27:35;;;;;;;12.00;6.30;;;;;;;-0.11;66.25;98369.42;115342;1200;27034;-78
2021/04/27 04:30:12;;;;;;;13.83;6.17;;;;;;;-0.06;66.72;98373.23;115282;1202;23110;-79
2021/04/27 04:32:40;;;;;;;15.75;6.60;;;;;;;0.05;66.63;98366.61;115246;1200;23138;-79
2021/04/27 04:35:28;;;;;;;13.23;6.00;;;;;;;0.16;66.14;98373.38;115394;1202;25714;-79
2021/04/27 04:38:17;;;;;;;14.90;6.60;;;;;;;0.26;66.31;98375.82;115220;1200;24699;-79
2021/04/27 04:41:03;;;;;;;16.93;7.50;;;;;;;0.33;65.63;98376.77;115380;1200;23114;-79
2021/04/27 04:43:48;;;;;;;17.73;8.73;;;;;;;0.42;65.88;98391.73;115231;1199;23105;-79
2021/04/27 04:46:34;;;;;;;22.80;9.40;;;;;;;0.47;65.88;98389.34;115531;1199;27415;-79
2021/04/27 04:49:19;;;;;;;20.80;10.63;;;;;;;0.52;65.94;98394.17;115383;1202;26003;-79
2021/04/27 04:52:09;;;;;;;22.87;11.00;;;;;;;0.55;66.39;98400.00;115361;1200;23131;-79
2021/04/27 04:55:05;;;;;;;21.63;9.53;;;;;;;0.60;65.83;98395.93;115337;1199;23121;-79
2021/04/27 04:57:50;;;;;;;20.23;9.07;;;;;;;0.64;65.50;98391.86;115357;1202;23240;-79
2021/04/27 05:00:21;;;;;;;16.70;9.40;;;;;;;0.70;65.59;98397.33;115396;1202;23177;-80
2021/04/27 05:03:07;;;;;;;15.87;8.80;;;;;;;0.80;65.14;98397.07;115226;1199;23192;-79
2021/04/27 05:05:53;;;;;;;10.40;5.65;;;;;;;0.87;64.49;98392.64;115382;1202;23168;-79
2021/04/27 05:08:44;;;;;;;15.85;6.45;;;;;;;0.95;64.23;98397.89;115154;1202;23176;-79
2021/04/27 05:11:38;;;;;;;14.30;6.67;;;;;;;1.06;64.07;98393.09;114732;1200;26130;-79
2021/04/27 05:14:24;;;;;;;14.10;5.70;;;;;;;1.16;63.91;98393.64;114899;1200;25187;-79
2021/04/27 05:16:52;;;;;;;13.37;6.17;;;;;;;1.24;64.04;98396.23;115190;1200;23132;-79
2021/04/27 05:19:19;;;;;;;14.45;6.45;;;;;;;1.32;64.04;98404.16;115084;1199;25978;-80
2021/04/27 05:21:45;;;;;;;15.80;6.00;;;;;;;1.42;64.17;98403.06;115256;1199;23191;-80
2021/04/27 05:24:12;;;;;;;12.50;6.20;;;;;;;1.48;63.42;98403.12;115190;1200;23109;-80
2021/04/27 05:26:39;;;;;;;10.70;5.90;;;;;;;1.57;63.70;98411.89;115382;1200;23135;-80
2021/04/27 05:29:09;;;;;;;11.97;5.50;;;;;;;1.65;62.84;98409.11;115077;1199;23116;-79
2021/04/27 05:31:36;;;;;;;12.90;5.90;;;;;;;1.72;62.91;98411.88;115352;1202;23277;-79
2021/04/27 05:34:03;;;;;;;9.53;5.57;;;;;;;1.80;62.80;98408.23;115310;1200;26012;-79
2021/04/27 05:36:30;;;;;;;9.50;5.47;;;;;;;1.87;61.83;98417.19;115141;1201;27210;-79
2021/04/27 05:38:58;;;;;;;17.45;6.35;;;;;;;1.92;61.96;98417.45;115118;1202;25971;-79
2021/04/27 05:41:25;;;;;;;12.30;6.30;;;;;;;1.99;61.37;98414.84;115103;1200;26002;-79
2021/04/27 05:43:52;;;;;;;12.10;5.63;;;;;;;2.02;60.98;98411.75;114982;1202;23170;-80
2021/04/27 05:46:19;;;;;;;11.47;6.57;;;;;;;2.08;60.86;98424.44;114829;1199;23135;-79
2021/04/27 05:48:46;;;;;;;11.57;6.30;;;;;;;2.13;61.11;98424.70;114856;1202;23106;-79
2021/04/27 05:51:13;;;;;;;16.13;6.93;;;;;;;2.18;61.75;98418.73;115032;1202;23105;-79
2021/04/27 05:53:40;;;;;;;10.60;6.60;;;;;;;2.24;61.76;98418.80;114728;1202;26142;-79
2021/04/27 05:56:07;;;;;;;13.47;5.60;;;;;;;2.29;62.09;98428.98;114890;1200;23249;-77
2021/04/27 05:58:34;;;;;;;10.50;5.53;;;;;;;2.36;61.77;98419.13;115102;1202;23154;-80
2021/04/27 06:01:01;;;;;;;12.37;6.17;;;;;;;2.40;62.11;98425.77;115159;1202;23106;-79
2021/04/27 06:03:28;;;;;;;11.30;6.10;;;;;;;2.47;62.29;98425.83;114850;1202;23106;-80
2021/04/27 06:05:56;;;;;;;11.70;6.00;;;;;;;2.53;61.95;98419.66;114808;1202;23154;-79
2021/04/27 06:08:23;;;;;;;11.83;5.93;;;;;;;2.59;61.55;98421.59;114832;1202;23145;-80
2021/04/27 06:10:50;;;;;;;15.55;7.00;;;;;;;2.66;61.29;98425.16;115079;1198;26227;-80
2021/04/27 06:13:17;;;;;;;17.20;7.43;;;;;;;2.75;61.42;98420.47;114814;1202;25065;-80
2021/04/27 06:15:44;;;;;;;12.73;6.13;;;;;;;2.80;61.44;98422.58;115120;1199;26291;-80
2021/04/27 06:18:11;;;;;;;13.50;7.10;;;;;;;2.87;61.24;98423.46;114807;1202;23932;-80
2021/04/27 06:20:41;;;;;;;13.70;6.77;;;;;;;2.95;60.89;98427.84;114828;1202;24640;-80
2021/04/27 06:23:08;;;;;;;11.95;5.70;;;;;;;3.04;60.21;98423.97;114854;1199;23103;-80
2021/04/27 06:25:35;;;;;;;13.30;6.60;;;;;;;3.10;60.50;98425.89;114874;1202;23111;-80
2021/04/27 06:28:02;;;;;;;16.10;7.20;;;;;;;3.19;60.64;98430.07;114912;1202;23128;-80
2021/04/27 06:30:29;;;;;;;10.17;5.33;;;;;;;3.26;59.29;98434.64;114805;1199;23326;-81
2021/04/27 06:32:56;;;;;;;14.33;6.27;;;;;;;3.39;59.25;98427.48;115123;1202;23125;-81
2021/04/27 06:35:27;;;;;;;11.05;5.75;;;;;;;3.48;58.57;98433.53;114776;1202;26618;-81
2021/04/27 06:37:54;;;;;;;13.43;6.07;;;;;;;3.54;58.05;98431.89;114886;1200;23122;-81
2021/04/27 06:40:22;;;;;;;7.93;4.93;;;;;;;3.60;58.39;98434.62;114815;1199;23140;-81
2021/04/27 06:42:49;;;;;;;12.20;5.87;;;;;;;3.66;57.70;98427.59;114822;1202;25105;-81
2021/04/27 06:45:17;;;;;;;6.30;4.07;;;;;;;3.74;57.40;98443.59;114857;1200;23790;-81
2021/04/27 06:47:46;;;;;;;13.65;5.50;;;;;;;3.82;56.53;98430.97;114759;1202;26290;-81
2021/04/27 06:50:16;;;;;;;6.83;4.70;;;;;;;3.89;56.66;98438.03;114937;1202;23400;-80
2021/04/27 06:52:44;;;;;;;9.15;5.25;;;;;;;3.96;56.43;98441.58;114858;1202;23202;-80
2021/04/27 06:55:12;;;;;;;9.75;4.95;;;;;;;4.05;55.14;98436.83;114813;1202;26048;-80
2021/04/27 06:57:39;;;;;;;6.20;5.15;;;;;;;4.11;56.55;98443.30;114847;1202;24779;-80
2021/04/27 07:00:09;;;;;;;11.53;6.50;;;;;;;4.20;55.86;98444.77;115106;1200;26137;-80
2021/04/27 07:02:36;;;;;;;11.33;4.73;;;;;;;4.27;55.72;98440.22;114828;1200;24536;-80
2021/04/27 07:05:03;;;;;;;9.15;5.85;;;;;;;4.35;56.00;98436.48;114857;1200;23101;-80
2021/04/27 07:07:31;;;;;;;11.60;6.40;;;;;;;4.57;56.20;98442.53;114859;1200;23128;-80
2021/04/27 07:09:58;;;;;;;7.50;4.60;;;;;;;4.68;54.85;98439.20;115154;1202;23112;-80
2021/04/27 07:12:24;;;;;;;7.90;5.50;;;;;;;4.77;54.84;98439.83;114799;1202;23102;-80
2021/04/27 07:14:52;;;;;;;8.83;4.37;;;;;;;4.83;53.36;98438.98;114844;1202;23167;-80
2021/04/27 07:17:19;;;;;;;12.43;6.13;;;;;;;4.87;53.43;98440.25;114827;1202;23186;-80
2021/04/27 07:19:46;;;;;;;9.57;5.20;;;;;;;4.92;52.56;98442.30;115080;1202;23112;-79
2021/04/27 07:22:13;;;;;;;10.15;5.25;;;;;;;4.92;52.64;98445.00;114883;1202;23116;-79
2021/04/27 07:24:40;;;;;;;12.13;5.97;;;;;;;4.98;53.35;98444.17;114753;1200;23176;-80
2021/04/27 07:27:07;;;;;;;10.47;5.73;;;;;;;5.04;52.37;98446.02;114794;1202;24713;-80
2021/04/27 07:29:34;;;;;;;8.97;5.33;;;;;;;5.10;52.42;98441.68;114796;1200;23154;-80
2021/04/27 07:32:01;;;;;;;9.45;3.65;;;;;;;5.17;52.33;98445.20;114760;1202;23153;-80
2021/04/27 07:34:28;;;;;;;9.10;4.57;;;;;;;5.25;51.30;98453.05;114837;1202;23133;-79
2021/04/27 07:36:55;;;;;;;8.20;4.87;;;;;;;5.31;51.02;98451.38;115076;1200;23182;-79
2021/04/27 07:39:21;;;;;;;11.17;5.63;;;;;;;5.38;50.78;98445.97;115209;1199;23106;-79
2021/04/27 07:41:49;;;;;;;10.63;5.53;;;;;;;5.44;50.06;98448.66;114997;1202;27316;-79
2021/04/27 07:44:16;;;;;;;9.30;5.60;;;;;;;5.50;49.77;98446.97;115097;1202;23092;-79
2021/04/27 07:46:43;;;;;;;11.00;5.00;;;;;;;5.58;49.52;98443.19;114917;1199;25971;-79
2021/04/27 07:49:10;;;;;;;11.15;5.80;;;;;;;5.69;49.52;98450.66;115021;1202;23093;-79
2021/04/27 07:51:37;;;;;;;11.05;5.80;;;;;;;5.80;49.57;98449.97;114926;1199;23204;-79
2021/04/27 07:54:04;;;;;;;10.20;5.60;;;;;;;5.90;48.96;98441.42;115187;1199;23103;-79
2021/04/27 07:56:33;;;;;;;11.53;5.23;;;;;;;6.01;49.63;98446.17;114976;1202;23095;-79
2021/04/27 07:59:05;;;;;;;8.83;5.03;;;;;;;6.15;48.14;98446.11;115212;1200;23544;-79
2021/04/27 08:01:37;;;;;;;7.70;4.70;;;;;;;6.24;47.20;98436.69;115013;1200;23182;-78
2021/04/27 08:04:10;;;;;;;9.43;5.23;;;;;;;6.33;46.78;98439.97;115086;1200;24722;-78
2021/04/27 08:06:39;;;;;;;9.40;5.80;;;;;;;6.44;46.80;98447.38;115114;1198;25962;-79
2021/04/27 08:09:07;;;;;;;7.95;5.20;;;;;;;6.58;47.13;98440.00;114924;1198;24725;-79
2021/04/27 08:11:37;;;;;;;7.75;4.80;;;;;;;6.74;46.45;98439.45;114962;1200;26204;-79
2021/04/27 08:14:05;;;;;;;8.17;5.30;;;;;;;6.89;46.55;98441.84;114986;1202;23105;-79
2021/04/27 08:16:32;;;;;;;9.27;5.07;;;;;;;7.01;45.27;98442.77;115091;1202;27300;-78
2021/04/27 08:19:06;;;;;;;9.60;5.00;;;;;;;7.15;44.58;98445.34;114822;1199;23101;-79
2021/04/27 08:21:33;;;;;;;9.40;5.15;;;;;;;7.26;44.98;98441.91;115069;1200;26047;-78
2021/04/27 08:24:00;;;;;;;8.40;4.50;;;;;;;7.37;44.15;98446.58;114696;1202;23120;-79
2021/04/27 08:26:27;;;;;;;9.60;5.70;;;;;;;7.49;43.97;98441.25;115055;1202;23163;-78
2021/04/27 08:28:55;;;;;;;6.80;4.40;;;;;;;7.56;41.69;98439.29;114833;1200;26137;-78
2021/04/27 08:31:27;;;;;;;13.10;4.40;;;;;;;7.58;41.25;98437.18;114992;1200;26291;-79
2021/04/27 08:33:54;;;;;;;7.97;5.07;;;;;;;7.63;40.61;98441.08;114798;1202;23102;-78
2021/04/27 08:36:22;;;;;;;10.35;5.70;;;;;;;7.74;41.87;98440.34;114790;1202;23116;-79
2021/04/27 08:38:49;;;;;;;9.65;4.85;;;;;;;7.91;42.10;98438.64;115213;1199;24778;-79
2021/04/27 08:41:17;;;;;;;7.13;4.77;;;;;;;8.10;41.95;98427.78;115080;1200;23153;-79
2021/04/27 08:43:44;;;;;;;9.30;4.85;;;;;;;8.24;40.40;98436.56;115101;1202;27345;-79
2021/04/27 08:46:11;;;;;;;7.40;4.50;;;;;;;8.35;40.41;98436.58;115157;1202;23241;-79
2021/04/27 08:48:38;;;;;;;7.27;4.43;;;;;;;8.52;40.72;98433.26;114779;1202;23163;-79
2021/04/27 08:51:05;;;;;;;10.20;5.15;;;;;;;8.62;38.12;98430.78;114822;1200;23192;-78
2021/04/27 08:53:32;;;;;;;8.45;4.10;;;;;;;8.77;37.94;98430.35;115165;1201;23116;-79
2021/04/27 08:55:59;;;;;;;8.70;4.00;;;;;;;8.95;38.14;98436.75;115040;1202;27338;-79
2021/04/27 08:58:26;;;;;;;7.27;3.70;;;;;;;9.16;37.86;98436.16;115066;1200;24773;-79
2021/04/27 09:00:53;;;;;;;7.40;3.95;;;;;;;9.37;37.11;98431.20;114784;1202;23167;-79
2021/04/27 09:03:20;;;;;;;8.90;4.25;;;;;;;9.57;35.75;98431.63;114815;1202;23121;-79
2021/04/27 09:05:47;;;;;;;6.20;4.00;;;;;;;9.74;37.00;98434.45;114737;1200;23179;-79
2021/04/27 09:08:14;;;;;;;7.75;5.15;;;;;;;9.89;36.97;98426.58;115044;1201;26657;-79
2021/04/27 09:10:45;;;;;;;9.30;5.05;;;;;;;10.03;36.61;98427.13;114828;1200;26153;-79
2021/04/27 09:13:18;;;;;;;6.50;4.10;;;;;;;10.20;35.99;98429.09;114896;1202;23253;-79
2021/04/27 09:15:51;;;;;;;6.60;3.90;;;;;;;10.36;34.73;98414.72;114795;1202;24735;-79
2021/04/27 09:18:33;;;;;;;7.45;4.15;;;;;;;10.37;34.57;98424.52;114724;1202;26492;-79
2021/04/27 09:21:06;;;;;;;8.10;4.80;;;;;;;10.46;33.78;98419.51;115094;1202;23118;-79
2021/04/27 09:23:34;;;;;;;8.60;5.10;;;;;;;10.48;34.35;98427.44;114814;1199;23142;-79
2021/04/27 09:26:19;;;;;;;8.38;4.95;;;;;;;10.42;33.99;98413.73;114835;1202;23117;-79
2021/04/27 09:28:53;;;;;;;8.00;4.95;;;;;;;10.41;34.50;98414.82;114800;1202;23265;-79
2021/04/27 09:31:32;;;;;;;7.60;4.45;;;;;;;10.29;34.08;98427.63;115048;1203;24929;-79
2021/04/27 09:34:35;;;;;;;6.30;4.57;;;;;;;10.23;32.76;98425.87;114838;1202;23130;-79
2021/04/27 09:37:09;;;;;;;10.17;5.20;;;;;;;10.25;34.93;98421.00;115056;1202;25997;-79
2021/04/27 09:39:50;;;;;;;7.10;3.95;;;;;;;10.28;33.24;98409.63;115178;1203;23106;-79
2021/04/27 09:42:17;;;;;;;6.25;4.45;;;;;;;10.21;33.61;98417.94;114777;1202;23551;-79
2021/04/27 09:44:50;;;;;;;7.95;5.40;;;;;;;10.24;32.96;98419.37;114788;1200;23179;-79
2021/04/27 09:47:33;;;;;;;9.10;4.50;;;;;;;10.27;33.25;98399.83;114792;1201;23292;-79
2021/04/27 09:50:06;;;;;;;9.50;4.80;;;;;;;10.33;34.67;98406.22;115079;1200;26048;-79
2021/04/27 09:52:41;;;;;;;7.03;4.60;;;;;;;10.49;33.44;98410.86;114822;1201;24022;-79
2021/04/27 09:55:11;;;;;;;7.25;5.20;;;;;;;10.61;32.03;98406.17;114770;1202;27287;-79
2021/04/27 09:57:48;;;;;;;8.00;5.20;;;;;;;10.69;33.07;98399.48;114808;1202;26214;-79
2021/04/27 10:00:22;;;;;;;8.95;5.60;;;;;;;10.80;32.43;98406.76;114785;1200;27303;-79
2021/04/27 10:02:50;;;;;;;9.40;4.80;;;;;;;10.68;32.65;98399.72;114836;1200;23128;-79
2021/04/27 10:05:18;;;;;;;10.00;5.50;;;;;;;10.75;33.19;98400.41;114757;1202;23204;-79
2021/04/27 10:07:46;;;;;;;8.57;4.73;;;;;;;10.92;31.95;98393.03;114763;1202;23141;-79
2021/04/27 10:10:19;;;;;;;8.55;4.85;;;;;;;10.91;32.08;98393.30;114785;1202;23252;-79
2021/04/27 10:12:47;;;;;;;7.70;4.50;;;;;;;10.94;32.31;98393.63;115079;1202;23326;-79
2021/04/27 10:15:15;;;;;;;8.60;4.80;;;;;;;11.09;32.63;98392.21;114764;1202;23121;-79
2021/04/27 10:17:42;;;;;;;7.10;4.60;;;;;;;11.26;31.61;98392.16;115053;1200;23115;-79
2021/04/27 10:20:13;;;;;;;8.65;5.20;;;;;;;11.40;31.01;98379.81;115067;1200;23292;-79
2021/04/27 10:22:42;;;;;;;7.63;4.83;;;;;;;11.49;30.22;98380.20;114783;1202;26934;-79
2021/04/27 10:25:16;;;;;;;6.50;4.50;;;;;;;11.51;30.46;98376.16;114706;1200;24738;-79
2021/04/27 10:27:43;;;;;;;10.13;5.90;;;;;;;11.44;30.79;98380.14;114766;1202;26217;-79
2021/04/27 10:30:17;;;;;;;8.10;4.80;;;;;;;11.35;31.82;98368.84;115190;1200;23141;-79
2021/04/27 10:33:02;;;;;;;9.50;5.00;;;;;;;11.45;32.33;98362.71;115574;1198;23854;-79
2021/04/27 10:35:30;;;;;;;6.95;4.80;;;;;;;11.55;31.90;98362.84;115322;1199;23122;-79
2021/04/27 10:38:09;;;;;;;6.30;4.30;;;;;;;11.67;30.38;98362.70;115232;1199;23478;-79
2021/04/27 10:40:55;;;;;;;5.15;4.20;;;;;;;11.78;28.29;98361.75;114933;1202;23115;-78
2021/04/27 10:43:26;;;;;;;7.15;4.65;;;;;;;11.89;28.86;98355.32;115294;1202;23151;-78
2021/04/27 10:46:04;;;;;;;7.97;3.83;;;;;;;12.05;29.72;98358.25;115202;1200;23118;-78
2021/04/27 10:48:33;;;;;;;7.70;4.75;;;;;;;12.10;29.90;98350.94;115077;1200;23140;-78
2021/04/27 10:51:20;;;;;;;6.40;4.45;;;;;;;12.18;29.01;98357.83;115059;1199;23137;-78
2021/04/27 10:54:21;;;;;;;8.85;5.10;;;;;;;12.13;28.31;98344.97;115029;1200;23125;-78
2021/04/27 10:56:58;;;;;;;7.60;4.50;;;;;;;12.13;28.52;98339.52;115314;1200;28242;-78
2021/04/27 10:59:27;;;;;;;8.10;4.60;;;;;;;12.18;29.16;98348.82;115439;1199;23102;-78
2021/04/27 11:02:19;;;;;;;8.35;5.20;;;;;;;12.25;29.34;98333.05;115328;1202;25978;-78
2021/04/27 11:04:49;;;;;;;8.07;4.60;;;;;;;12.34;28.99;98340.53;115060;1200;23201;-78
2021/04/27 11:07:22;;;;;;;6.60;3.68;;;;;;;12.48;28.55;98330.00;115013;1202;23199;-78
2021/04/27 11:10:02;;;;;;;6.45;3.40;;;;;;;12.61;28.65;98333.38;115455;1199;26587;-78
2021/04/27 11:12:33;;;;;;;5.67;3.73;;;;;;;12.69;27.31;98330.14;115304;1199;26290;-79
2021/04/27 11:15:12;;;;;;;4.35;3.20;;;;;;;12.79;27.12;98329.41;115049;1200;23110;-78
2021/04/27 11:17:55;;;;;;;6.70;3.80;;;;;;;12.85;27.52;98328.34;114952;1199;23118;-78
2021/04/27 11:20:45;;;;;;;7.33;4.27;;;;;;;12.93;25.90;98316.92;115131;1200;23584;-79
2021/04/27 11:23:37;;;;;;;6.40;4.40;;;;;;;12.98;26.45;98319.70;115189;1199;23123;-78
2021/04/27 11:26:33;;;;;;;7.90;3.65;;;;;;;13.14;27.81;98317.03;114878;1200;26577;-79
2021/04/27 11:29:24;;;;;;;4.90;3.00;;;;;;;13.18;26.40;98318.98;114988;1200;23130;-79
2021/04/27 11:32:11;;;;;;;5.55;4.10;;;;;;;13.25;26.93;98316.02;114975;1202;23324;-79
2021/04/27 11:35:16;;;;;;;5.20;3.60;;;;;;;13.29;25.44;98317.12;115239;1200;23342;-78
2021/04/27 11:37:59;;;;;;;6.40;3.30;;;;;;;13.15;24.18;98313.22;115126;1202;23112;-78
2021/04/27 11:40:32;;;;;;;7.60;4.20;;;;;;;13.11;24.46;98308.27;114882;1202;23197;-79
2021/04/27 11:43:13;;;;;;;6.60;3.60;;;;;;;13.20;24.40;98307.78;114818;1200;23102;-78
2021/04/27 11:45:47;;;;;;;5.80;3.90;;;;;;;13.27;24.39;98305.63;114794;1202;24756;-78